sensor_id;sensor_type;location;lat;lon;timestamp;P1;durP1;ratioP1;P2;durP2;ratioP2
10904;SDS011;5505;51.450;9.254;2023-05-21T00:00:24;10.87;;;8.27;;
10904;SDS011;5505;51.450;9.254;2023-05-21T00:03:11;9.93;;;7.37;;
10904;SDS011;5505;51.450;9.254;2023-05-21T00:06:00;8.13;;;7.33;;
10904;SDS011;5505;51.450;9.254;2023-05-21T00:08:47;8.20;;;7.33;;
10904;SDS011;5505;51.450;9.254;2023-05-21T00:11:34;8.43;;;7.53;;
10904;SDS011;5505;51.450;9.254;2023-05-21T00:14:21;7.90;;;7.17;;
10904;SDS011;5505;51.450;9.254;2023-05-21T00:17:09;8.57;;;7.20;;
10904;SDS011;5505;51.450;9.254;2023-05-21T00:19:55;9.20;;;7.33;;
10904;SDS011;5505;51.450;9.254;2023-05-21T00:22:44;8.57;;;7.40;;
10904;SDS011;5505;51.450;9.254;2023-05-21T00:25:32;7.63;;;6.93;;
10904;SDS011;5505;51.450;9.254;2023-05-21T00:28:18;8.30;;;6.67;;
10904;SDS011;5505;51.450;9.254;2023-05-21T00:31:05;7.73;;;6.93;;
10904;SDS011;5505;51.450;9.254;2023-05-21T00:33:53;7.37;;;6.67;;
10904;SDS011;5505;51.450;9.254;2023-05-21T00:36:40;8.43;;;7.63;;
10904;SDS011;5505;51.450;9.254;2023-05-21T00:39:29;7.50;;;6.80;;
10904;SDS011;5505;51.450;9.254;2023-05-21T00:42:16;8.20;;;7.10;;
10904;SDS011;5505;51.450;9.254;2023-05-21T00:45:03;8.73;;;7.40;;
10904;SDS011;5505;51.450;9.254;2023-05-21T00:47:51;8.87;;;6.97;;
10904;SDS011;5505;51.450;9.254;2023-05-21T00:50:40;7.90;;;6.60;;
10904;SDS011;5505;51.450;9.254;2023-05-21T00:53:28;8.27;;;7.27;;
10904;SDS011;5505;51.450;9.254;2023-05-21T00:56:18;8.60;;;7.20;;
10904;SDS011;5505;51.450;9.254;2023-05-21T00:59:06;8.50;;;7.60;;
10904;SDS011;5505;51.450;9.254;2023-05-21T01:01:53;8.23;;;6.97;;
10904;SDS011;5505;51.450;9.254;2023-05-21T01:04:41;8.77;;;7.30;;
10904;SDS011;5505;51.450;9.254;2023-05-21T01:07:30;8.50;;;7.50;;
10904;SDS011;5505;51.450;9.254;2023-05-21T01:10:18;8.80;;;7.90;;
10904;SDS011;5505;51.450;9.254;2023-05-21T01:13:05;8.67;;;7.87;;
10904;SDS011;5505;51.450;9.254;2023-05-21T01:15:52;9.03;;;7.70;;
10904;SDS011;5505;51.450;9.254;2023-05-21T01:18:42;8.60;;;7.73;;
10904;SDS011;5505;51.450;9.254;2023-05-21T01:21:29;8.50;;;7.70;;
10904;SDS011;5505;51.450;9.254;2023-05-21T01:24:17;9.77;;;7.90;;
10904;SDS011;5505;51.450;9.254;2023-05-21T01:27:04;8.23;;;7.43;;
10904;SDS011;5505;51.450;9.254;2023-05-21T01:29:51;8.67;;;7.87;;
10904;SDS011;5505;51.450;9.254;2023-05-21T01:32:40;8.33;;;7.50;;
10904;SDS011;5505;51.450;9.254;2023-05-21T01:35:34;8.17;;;7.47;;
10904;SDS011;5505;51.450;9.254;2023-05-21T01:38:25;9.90;;;7.90;;
10904;SDS011;5505;51.450;9.254;2023-05-21T01:41:17;9.23;;;8.33;;
10904;SDS011;5505;51.450;9.254;2023-05-21T01:44:05;8.90;;;8.00;;
10904;SDS011;5505;51.450;9.254;2023-05-21T01:46:53;9.17;;;7.80;;
10904;SDS011;5505;51.450;9.254;2023-05-21T01:49:42;7.87;;;6.67;;
10904;SDS011;5505;51.450;9.254;2023-05-21T01:52:29;8.40;;;7.60;;
10904;SDS011;5505;51.450;9.254;2023-05-21T01:55:16;9.07;;;8.17;;
10904;SDS011;5505;51.450;9.254;2023-05-21T01:58:04;9.93;;;7.90;;
10904;SDS011;5505;51.450;9.254;2023-05-21T02:00:51;8.50;;;7.53;;
10904;SDS011;5505;51.450;9.254;2023-05-21T02:03:38;8.90;;;8.00;;
10904;SDS011;5505;51.450;9.254;2023-05-21T02:06:25;9.10;;;8.20;;
10904;SDS011;5505;51.450;9.254;2023-05-21T02:09:12;9.97;;;8.50;;
10904;SDS011;5505;51.450;9.254;2023-05-21T02:11:59;11.30;;;8.50;;
10904;SDS011;5505;51.450;9.254;2023-05-21T02:14:49;9.73;;;8.73;;
10904;SDS011;5505;51.450;9.254;2023-05-21T02:17:36;9.03;;;8.13;;
10904;SDS011;5505;51.450;9.254;2023-05-21T02:20:22;9.47;;;8.57;;
10904;SDS011;5505;51.450;9.254;2023-05-21T02:23:09;10.17;;;8.73;;
10904;SDS011;5505;51.450;9.254;2023-05-21T02:25:56;10.20;;;9.13;;
10904;SDS011;5505;51.450;9.254;2023-05-21T02:28:42;10.40;;;9.40;;
10904;SDS011;5505;51.450;9.254;2023-05-21T02:31:30;9.93;;;8.93;;
10904;SDS011;5505;51.450;9.254;2023-05-21T02:34:17;10.40;;;9.40;;
10904;SDS011;5505;51.450;9.254;2023-05-21T02:37:04;11.37;;;9.53;;
10904;SDS011;5505;51.450;9.254;2023-05-21T02:39:51;11.80;;;9.77;;
10904;SDS011;5505;51.450;9.254;2023-05-21T02:42:38;11.00;;;9.90;;
10904;SDS011;5505;51.450;9.254;2023-05-21T02:45:25;11.20;;;10.00;;
10904;SDS011;5505;51.450;9.254;2023-05-21T02:48:15;11.03;;;9.60;;
10904;SDS011;5505;51.450;9.254;2023-05-21T02:51:01;10.10;;;9.10;;
10904;SDS011;5505;51.450;9.254;2023-05-21T02:53:48;10.53;;;9.53;;
10904;SDS011;5505;51.450;9.254;2023-05-21T02:56:35;10.83;;;8.83;;
10904;SDS011;5505;51.450;9.254;2023-05-21T02:59:22;10.00;;;9.00;;
10904;SDS011;5505;51.450;9.254;2023-05-21T03:02:08;9.67;;;8.70;;
10904;SDS011;5505;51.450;9.254;2023-05-21T03:04:56;11.07;;;8.87;;
10904;SDS011;5505;51.450;9.254;2023-05-21T03:07:43;10.03;;;9.10;;
10904;SDS011;5505;51.450;9.254;2023-05-21T03:10:30;11.10;;;8.93;;
10904;SDS011;5505;51.450;9.254;2023-05-21T03:13:17;9.60;;;8.70;;
10904;SDS011;5505;51.450;9.254;2023-05-21T03:16:04;10.90;;;9.80;;
10904;SDS011;5505;51.450;9.254;2023-05-21T03:18:51;11.30;;;10.20;;
10904;SDS011;5505;51.450;9.254;2023-05-21T03:21:39;11.40;;;10.27;;
10904;SDS011;5505;51.450;9.254;2023-05-21T03:24:27;10.43;;;9.37;;
10904;SDS011;5505;51.450;9.254;2023-05-21T03:27:14;10.83;;;9.73;;
10904;SDS011;5505;51.450;9.254;2023-05-21T03:30:01;10.43;;;8.90;;
10904;SDS011;5505;51.450;9.254;2023-05-21T03:32:47;10.77;;;9.67;;
10904;SDS011;5505;51.450;9.254;2023-05-21T03:35:35;11.20;;;10.20;;
10904;SDS011;5505;51.450;9.254;2023-05-21T03:38:23;10.83;;;9.30;;
10904;SDS011;5505;51.450;9.254;2023-05-21T03:41:10;10.87;;;9.77;;
10904;SDS011;5505;51.450;9.254;2023-05-21T03:43:57;11.13;;;9.77;;
10904;SDS011;5505;51.450;9.254;2023-05-21T03:46:44;12.30;;;9.70;;
10904;SDS011;5505;51.450;9.254;2023-05-21T03:49:30;10.47;;;9.47;;
10904;SDS011;5505;51.450;9.254;2023-05-21T03:52:17;10.33;;;9.27;;
10904;SDS011;5505;51.450;9.254;2023-05-21T03:55:06;10.73;;;9.27;;
10904;SDS011;5505;51.450;9.254;2023-05-21T03:57:53;11.97;;;10.77;;
10904;SDS011;5505;51.450;9.254;2023-05-21T04:00:40;13.33;;;11.07;;
10904;SDS011;5505;51.450;9.254;2023-05-21T04:03:26;12.00;;;10.80;;
10904;SDS011;5505;51.450;9.254;2023-05-21T04:06:13;11.47;;;10.37;;
10904;SDS011;5505;51.450;9.254;2023-05-21T04:09:00;12.87;;;11.57;;
10904;SDS011;5505;51.450;9.254;2023-05-21T04:11:50;13.93;;;12.43;;
10904;SDS011;5505;51.450;9.254;2023-05-21T04:14:36;12.13;;;10.77;;
10904;SDS011;5505;51.450;9.254;2023-05-21T04:17:23;12.00;;;10.40;;
10904;SDS011;5505;51.450;9.254;2023-05-21T04:20:11;12.03;;;10.80;;
10904;SDS011;5505;51.450;9.254;2023-05-21T04:23:00;12.67;;;11.37;;
10904;SDS011;5505;51.450;9.254;2023-05-21T04:25:47;11.80;;;10.70;;
10904;SDS011;5505;51.450;9.254;2023-05-21T04:28:36;11.10;;;10.00;;
10904;SDS011;5505;51.450;9.254;2023-05-21T04:31:26;11.90;;;10.67;;
10904;SDS011;5505;51.450;9.254;2023-05-21T04:34:12;10.93;;;9.93;;
10904;SDS011;5505;51.450;9.254;2023-05-21T04:37:01;11.50;;;10.30;;
10904;SDS011;5505;51.450;9.254;2023-05-21T04:39:48;11.87;;;10.60;;
10904;SDS011;5505;51.450;9.254;2023-05-21T04:42:35;13.10;;;11.13;;
10904;SDS011;5505;51.450;9.254;2023-05-21T04:45:24;12.43;;;11.23;;
10904;SDS011;5505;51.450;9.254;2023-05-21T04:48:11;12.67;;;11.23;;
10904;SDS011;5505;51.450;9.254;2023-05-21T04:50:59;11.97;;;10.83;;
10904;SDS011;5505;51.450;9.254;2023-05-21T04:53:49;13.07;;;11.80;;
10904;SDS011;5505;51.450;9.254;2023-05-21T04:56:38;13.33;;;11.93;;
10904;SDS011;5505;51.450;9.254;2023-05-21T04:59:24;13.43;;;11.63;;
10904;SDS011;5505;51.450;9.254;2023-05-21T05:02:12;12.70;;;11.40;;
10904;SDS011;5505;51.450;9.254;2023-05-21T05:04:59;12.00;;;10.83;;
10904;SDS011;5505;51.450;9.254;2023-05-21T05:07:46;12.23;;;11.03;;
10904;SDS011;5505;51.450;9.254;2023-05-21T05:10:33;12.77;;;10.67;;
10904;SDS011;5505;51.450;9.254;2023-05-21T05:13:20;14.57;;;11.77;;
10904;SDS011;5505;51.450;9.254;2023-05-21T05:16:07;14.77;;;11.83;;
10904;SDS011;5505;51.450;9.254;2023-05-21T05:18:55;13.77;;;12.37;;
10904;SDS011;5505;51.450;9.254;2023-05-21T05:21:42;14.77;;;12.33;;
10904;SDS011;5505;51.450;9.254;2023-05-21T05:24:29;13.73;;;12.33;;
10904;SDS011;5505;51.450;9.254;2023-05-21T05:27:16;14.20;;;12.73;;
10904;SDS011;5505;51.450;9.254;2023-05-21T05:30:03;13.13;;;11.67;;
10904;SDS011;5505;51.450;9.254;2023-05-21T05:32:50;14.47;;;12.10;;
10904;SDS011;5505;51.450;9.254;2023-05-21T05:35:38;13.13;;;11.73;;
10904;SDS011;5505;51.450;9.254;2023-05-21T05:38:25;13.50;;;12.17;;
10904;SDS011;5505;51.450;9.254;2023-05-21T05:41:12;13.63;;;12.23;;
10904;SDS011;5505;51.450;9.254;2023-05-21T05:43:58;13.93;;;12.43;;
10904;SDS011;5505;51.450;9.254;2023-05-21T05:46:45;13.90;;;12.47;;
10904;SDS011;5505;51.450;9.254;2023-05-21T05:49:32;12.80;;;11.60;;
10904;SDS011;5505;51.450;9.254;2023-05-21T05:52:20;13.90;;;12.40;;
10904;SDS011;5505;51.450;9.254;2023-05-21T05:55:07;14.13;;;12.53;;
10904;SDS011;5505;51.450;9.254;2023-05-21T05:57:56;13.33;;;12.00;;
10904;SDS011;5505;51.450;9.254;2023-05-21T06:00:42;13.53;;;12.17;;
10904;SDS011;5505;51.450;9.254;2023-05-21T06:03:30;13.03;;;11.17;;
10904;SDS011;5505;51.450;9.254;2023-05-21T06:06:16;13.07;;;11.77;;
10904;SDS011;5505;51.450;9.254;2023-05-21T06:09:04;14.23;;;12.27;;
10904;SDS011;5505;51.450;9.254;2023-05-21T06:11:51;12.83;;;11.47;;
10904;SDS011;5505;51.450;9.254;2023-05-21T06:14:38;13.40;;;12.07;;
10904;SDS011;5505;51.450;9.254;2023-05-21T06:17:25;12.17;;;11.07;;
10904;SDS011;5505;51.450;9.254;2023-05-21T06:20:11;13.33;;;12.00;;
10904;SDS011;5505;51.450;9.254;2023-05-21T06:22:58;13.30;;;12.10;;
10904;SDS011;5505;51.450;9.254;2023-05-21T06:25:46;13.33;;;12.00;;
10904;SDS011;5505;51.450;9.254;2023-05-21T06:28:33;11.87;;;10.87;;
10904;SDS011;5505;51.450;9.254;2023-05-21T06:31:20;15.03;;;11.80;;
10904;SDS011;5505;51.450;9.254;2023-05-21T06:34:06;14.83;;;11.40;;
10904;SDS011;5505;51.450;9.254;2023-05-21T06:36:54;12.43;;;11.10;;
10904;SDS011;5505;51.450;9.254;2023-05-21T06:39:41;13.53;;;11.50;;
10904;SDS011;5505;51.450;9.254;2023-05-21T06:42:29;12.57;;;11.43;;
10904;SDS011;5505;51.450;9.254;2023-05-21T06:45:16;13.20;;;11.80;;
10904;SDS011;5505;51.450;9.254;2023-05-21T06:48:03;13.27;;;11.97;;
10904;SDS011;5505;51.450;9.254;2023-05-21T06:50:50;12.53;;;11.23;;
10904;SDS011;5505;51.450;9.254;2023-05-21T06:53:36;13.87;;;12.47;;
10904;SDS011;5505;51.450;9.254;2023-05-21T06:56:23;11.80;;;10.70;;
10904;SDS011;5505;51.450;9.254;2023-05-21T06:59:11;12.73;;;11.27;;
10904;SDS011;5505;51.450;9.254;2023-05-21T07:01:58;12.27;;;10.97;;
10904;SDS011;5505;51.450;9.254;2023-05-21T07:04:46;13.03;;;11.60;;
10904;SDS011;5505;51.450;9.254;2023-05-21T07:07:32;12.90;;;11.60;;
10904;SDS011;5505;51.450;9.254;2023-05-21T07:10:19;12.60;;;11.40;;
10904;SDS011;5505;51.450;9.254;2023-05-21T07:13:06;12.00;;;10.67;;
10904;SDS011;5505;51.450;9.254;2023-05-21T07:15:54;13.57;;;12.20;;
10904;SDS011;5505;51.450;9.254;2023-05-21T07:18:41;12.17;;;10.93;;
10904;SDS011;5505;51.450;9.254;2023-05-21T07:21:28;12.10;;;10.83;;
10904;SDS011;5505;51.450;9.254;2023-05-21T07:24:15;13.47;;;12.00;;
10904;SDS011;5505;51.450;9.254;2023-05-21T07:27:02;13.23;;;12.03;;
10904;SDS011;5505;51.450;9.254;2023-05-21T07:29:50;13.10;;;11.80;;
10904;SDS011;5505;51.450;9.254;2023-05-21T07:32:38;13.80;;;12.50;;
10904;SDS011;5505;51.450;9.254;2023-05-21T07:35:25;13.93;;;12.40;;
10904;SDS011;5505;51.450;9.254;2023-05-21T07:38:11;13.63;;;12.40;;
10904;SDS011;5505;51.450;9.254;2023-05-21T07:40:58;13.10;;;11.90;;
10904;SDS011;5505;51.450;9.254;2023-05-21T07:43:45;13.20;;;12.00;;
10904;SDS011;5505;51.450;9.254;2023-05-21T07:46:32;13.20;;;11.80;;
10904;SDS011;5505;51.450;9.254;2023-05-21T07:49:20;15.23;;;12.07;;
10904;SDS011;5505;51.450;9.254;2023-05-21T07:52:06;13.50;;;12.20;;
10904;SDS011;5505;51.450;9.254;2023-05-21T07:54:53;14.20;;;12.90;;
10904;SDS011;5505;51.450;9.254;2023-05-21T07:57:40;13.97;;;11.87;;
10904;SDS011;5505;51.450;9.254;2023-05-21T08:00:27;14.53;;;13.10;;
10904;SDS011;5505;51.450;9.254;2023-05-21T08:03:14;14.37;;;12.83;;
10904;SDS011;5505;51.450;9.254;2023-05-21T08:06:02;15.03;;;13.53;;
10904;SDS011;5505;51.450;9.254;2023-05-21T08:08:49;13.90;;;12.63;;
10904;SDS011;5505;51.450;9.254;2023-05-21T08:11:36;17.37;;;12.83;;
10904;SDS011;5505;51.450;9.254;2023-05-21T08:14:23;14.45;;;12.95;;
10904;SDS011;5505;51.450;9.254;2023-05-21T08:17:10;14.00;;;12.70;;
10904;SDS011;5505;51.450;9.254;2023-05-21T08:19:57;13.80;;;12.40;;
10904;SDS011;5505;51.450;9.254;2023-05-21T08:22:45;14.23;;;12.83;;
10904;SDS011;5505;51.450;9.254;2023-05-21T08:25:32;14.63;;;13.07;;
10904;SDS011;5505;51.450;9.254;2023-05-21T08:31:07;13.33;;;12.00;;
10904;SDS011;5505;51.450;9.254;2023-05-21T08:33:53;12.83;;;11.53;;
10904;SDS011;5505;51.450;9.254;2023-05-21T08:36:41;12.87;;;11.60;;
10904;SDS011;5505;51.450;9.254;2023-05-21T08:39:31;13.90;;;12.50;;
10904;SDS011;5505;51.450;9.254;2023-05-21T08:42:18;13.20;;;11.80;;
10904;SDS011;5505;51.450;9.254;2023-05-21T08:45:12;14.00;;;12.53;;
10904;SDS011;5505;51.450;9.254;2023-05-21T08:48:00;14.10;;;12.20;;
10904;SDS011;5505;51.450;9.254;2023-05-21T08:50:48;13.73;;;12.40;;
10904;SDS011;5505;51.450;9.254;2023-05-21T08:53:35;13.73;;;12.30;;
10904;SDS011;5505;51.450;9.254;2023-05-21T08:56:23;13.60;;;12.27;;
10904;SDS011;5505;51.450;9.254;2023-05-21T08:59:10;13.47;;;12.17;;
10904;SDS011;5505;51.450;9.254;2023-05-21T09:01:58;14.03;;;12.60;;
10904;SDS011;5505;51.450;9.254;2023-05-21T09:04:46;13.87;;;12.50;;
10904;SDS011;5505;51.450;9.254;2023-05-21T09:07:37;13.07;;;11.90;;
10904;SDS011;5505;51.450;9.254;2023-05-21T09:10:28;13.50;;;12.23;;
10904;SDS011;5505;51.450;9.254;2023-05-21T09:13:20;14.23;;;12.67;;
10904;SDS011;5505;51.450;9.254;2023-05-21T09:16:07;12.93;;;11.83;;
10904;SDS011;5505;51.450;9.254;2023-05-21T09:18:56;13.83;;;12.53;;
10904;SDS011;5505;51.450;9.254;2023-05-21T09:21:42;13.90;;;12.50;;
10904;SDS011;5505;51.450;9.254;2023-05-21T09:24:29;13.47;;;12.17;;
10904;SDS011;5505;51.450;9.254;2023-05-21T09:27:17;12.93;;;11.63;;
10904;SDS011;5505;51.450;9.254;2023-05-21T09:30:08;13.53;;;12.23;;
10904;SDS011;5505;51.450;9.254;2023-05-21T09:32:56;12.77;;;11.63;;
10904;SDS011;5505;51.450;9.254;2023-05-21T09:35:44;12.67;;;11.30;;
10904;SDS011;5505;51.450;9.254;2023-05-21T09:38:32;12.80;;;11.60;;
10904;SDS011;5505;51.450;9.254;2023-05-21T09:41:19;14.23;;;12.00;;
10904;SDS011;5505;51.450;9.254;2023-05-21T09:44:17;12.17;;;10.97;;
10904;SDS011;5505;51.450;9.254;2023-05-21T09:47:06;12.70;;;11.40;;
10904;SDS011;5505;51.450;9.254;2023-05-21T09:49:56;14.10;;;11.30;;
10904;SDS011;5505;51.450;9.254;2023-05-21T09:52:43;14.70;;;10.77;;
10904;SDS011;5505;51.450;9.254;2023-05-21T09:55:30;11.67;;;10.60;;
10904;SDS011;5505;51.450;9.254;2023-05-21T09:58:21;11.77;;;10.57;;
10904;SDS011;5505;51.450;9.254;2023-05-21T10:01:09;10.80;;;9.90;;
10904;SDS011;5505;51.450;9.254;2023-05-21T10:03:57;11.23;;;10.13;;
10904;SDS011;5505;51.450;9.254;2023-05-21T10:06:45;10.90;;;9.97;;
10904;SDS011;5505;51.450;9.254;2023-05-21T10:09:34;29.77;;;10.60;;
10904;SDS011;5505;51.450;9.254;2023-05-21T10:12:22;10.40;;;9.50;;
10904;SDS011;5505;51.450;9.254;2023-05-21T10:15:11;10.70;;;9.70;;
10904;SDS011;5505;51.450;9.254;2023-05-21T10:17:59;11.20;;;10.20;;
10904;SDS011;5505;51.450;9.254;2023-05-21T10:20:50;11.00;;;9.97;;
10904;SDS011;5505;51.450;9.254;2023-05-21T10:23:38;10.50;;;9.43;;
10904;SDS011;5505;51.450;9.254;2023-05-21T10:26:26;10.13;;;9.23;;
10904;SDS011;5505;51.450;9.254;2023-05-21T10:29:13;10.03;;;9.03;;
10904;SDS011;5505;51.450;9.254;2023-05-21T10:32:01;10.53;;;9.53;;
10904;SDS011;5505;51.450;9.254;2023-05-21T10:34:50;10.43;;;9.43;;
10904;SDS011;5505;51.450;9.254;2023-05-21T10:37:40;9.80;;;8.90;;
10904;SDS011;5505;51.450;9.254;2023-05-21T10:40:28;9.53;;;8.63;;
10904;SDS011;5505;51.450;9.254;2023-05-21T10:43:20;12.63;;;9.77;;
10904;SDS011;5505;51.450;9.254;2023-05-21T10:49:53;11.20;;;10.10;;
10904;SDS011;5505;51.450;9.254;2023-05-21T10:52:51;11.03;;;9.43;;
10904;SDS011;5505;51.450;9.254;2023-05-21T10:55:50;11.40;;;9.97;;
10904;SDS011;5505;51.450;9.254;2023-05-21T10:58:50;10.47;;;9.53;;
10904;SDS011;5505;51.450;9.254;2023-05-21T11:01:50;11.40;;;9.57;;
10904;SDS011;5505;51.450;9.254;2023-05-21T11:04:38;10.73;;;9.63;;
10904;SDS011;5505;51.450;9.254;2023-05-21T11:10:41;11.00;;;9.90;;
10904;SDS011;5505;51.450;9.254;2023-05-21T11:13:43;10.60;;;9.60;;
10904;SDS011;5505;51.450;9.254;2023-05-21T11:16:34;10.90;;;10.00;;
10904;SDS011;5505;51.450;9.254;2023-05-21T11:19:21;10.17;;;9.03;;
10904;SDS011;5505;51.450;9.254;2023-05-21T11:22:20;10.17;;;8.77;;
10904;SDS011;5505;51.450;9.254;2023-05-21T11:25:09;10.50;;;9.43;;
10904;SDS011;5505;51.450;9.254;2023-05-21T11:27:56;10.97;;;9.47;;
10904;SDS011;5505;51.450;9.254;2023-05-21T11:34:18;10.63;;;9.73;;
10904;SDS011;5505;51.450;9.254;2023-05-21T11:40:26;10.13;;;9.13;;
10904;SDS011;5505;51.450;9.254;2023-05-21T11:43:14;10.03;;;8.87;;
10904;SDS011;5505;51.450;9.254;2023-05-21T11:46:03;10.37;;;9.10;;
10904;SDS011;5505;51.450;9.254;2023-05-21T11:48:50;10.97;;;9.30;;
10904;SDS011;5505;51.450;9.254;2023-05-21T11:51:39;10.60;;;8.97;;
10904;SDS011;5505;51.450;9.254;2023-05-21T11:54:25;9.50;;;8.70;;
10904;SDS011;5505;51.450;9.254;2023-05-21T11:57:14;10.83;;;9.07;;
10904;SDS011;5505;51.450;9.254;2023-05-21T12:00:03;9.73;;;8.87;;
10904;SDS011;5505;51.450;9.254;2023-05-21T12:02:57;9.77;;;8.97;;
10904;SDS011;5505;51.450;9.254;2023-05-21T12:05:44;10.17;;;9.30;;
10904;SDS011;5505;51.450;9.254;2023-05-21T12:08:31;9.87;;;8.97;;
10904;SDS011;5505;51.450;9.254;2023-05-21T12:11:18;10.30;;;9.30;;
10904;SDS011;5505;51.450;9.254;2023-05-21T12:14:07;10.43;;;9.33;;
10904;SDS011;5505;51.450;9.254;2023-05-21T12:16:54;9.67;;;8.73;;
10904;SDS011;5505;51.450;9.254;2023-05-21T12:19:42;9.63;;;8.17;;
10904;SDS011;5505;51.450;9.254;2023-05-21T12:22:30;10.00;;;9.00;;
10904;SDS011;5505;51.450;9.254;2023-05-21T12:25:17;8.77;;;7.80;;
10904;SDS011;5505;51.450;9.254;2023-05-21T12:28:04;9.50;;;8.70;;
10904;SDS011;5505;51.450;9.254;2023-05-21T12:30:53;10.80;;;8.83;;
10904;SDS011;5505;51.450;9.254;2023-05-21T12:33:39;10.10;;;9.10;;
10904;SDS011;5505;51.450;9.254;2023-05-21T12:36:29;9.80;;;8.90;;
10904;SDS011;5505;51.450;9.254;2023-05-21T12:39:18;9.17;;;8.27;;
10904;SDS011;5505;51.450;9.254;2023-05-21T12:42:05;10.97;;;8.47;;
10904;SDS011;5505;51.450;9.254;2023-05-21T12:44:52;9.77;;;8.87;;
10904;SDS011;5505;51.450;9.254;2023-05-21T12:47:41;9.20;;;8.30;;
10904;SDS011;5505;51.450;9.254;2023-05-21T12:50:37;9.03;;;8.17;;
10904;SDS011;5505;51.450;9.254;2023-05-21T12:53:24;9.43;;;8.23;;
10904;SDS011;5505;51.450;9.254;2023-05-21T12:56:21;9.03;;;8.23;;
10904;SDS011;5505;51.450;9.254;2023-05-21T12:59:11;9.27;;;8.33;;
10904;SDS011;5505;51.450;9.254;2023-05-21T13:01:59;9.10;;;8.20;;
10904;SDS011;5505;51.450;9.254;2023-05-21T13:04:47;9.17;;;8.37;;
10904;SDS011;5505;51.450;9.254;2023-05-21T13:07:38;11.53;;;7.60;;
10904;SDS011;5505;51.450;9.254;2023-05-21T13:10:27;9.13;;;8.43;;
10904;SDS011;5505;51.450;9.254;2023-05-21T13:13:14;11.47;;;8.70;;
10904;SDS011;5505;51.450;9.254;2023-05-21T13:16:01;9.27;;;8.37;;
10904;SDS011;5505;51.450;9.254;2023-05-21T13:18:48;9.17;;;8.17;;
10904;SDS011;5505;51.450;9.254;2023-05-21T13:21:36;8.53;;;7.70;;
10904;SDS011;5505;51.450;9.254;2023-05-21T13:24:22;8.30;;;7.50;;
10904;SDS011;5505;51.450;9.254;2023-05-21T13:27:09;7.97;;;7.27;;
10904;SDS011;5505;51.450;9.254;2023-05-21T13:29:56;8.27;;;7.57;;
10904;SDS011;5505;51.450;9.254;2023-05-21T13:32:43;8.13;;;7.33;;
10904;SDS011;5505;51.450;9.254;2023-05-21T13:35:30;8.63;;;7.30;;
10904;SDS011;5505;51.450;9.254;2023-05-21T13:38:19;8.03;;;7.23;;
10904;SDS011;5505;51.450;9.254;2023-05-21T13:41:05;7.97;;;7.27;;
10904;SDS011;5505;51.450;9.254;2023-05-21T13:43:51;7.27;;;6.57;;
10904;SDS011;5505;51.450;9.254;2023-05-21T13:46:38;7.80;;;7.00;;
10904;SDS011;5505;51.450;9.254;2023-05-21T13:49:25;8.00;;;7.20;;
10904;SDS011;5505;51.450;9.254;2023-05-21T13:52:12;9.97;;;7.47;;
10904;SDS011;5505;51.450;9.254;2023-05-21T13:55:00;8.23;;;7.30;;
10904;SDS011;5505;51.450;9.254;2023-05-21T13:57:48;7.43;;;6.73;;
10904;SDS011;5505;51.450;9.254;2023-05-21T14:00:35;7.53;;;6.93;;
10904;SDS011;5505;51.450;9.254;2023-05-21T14:03:22;7.90;;;7.10;;
10904;SDS011;5505;51.450;9.254;2023-05-21T14:06:09;7.90;;;7.10;;
10904;SDS011;5505;51.450;9.254;2023-05-21T14:08:56;8.53;;;7.70;;
10904;SDS011;5505;51.450;9.254;2023-05-21T14:11:45;8.07;;;7.37;;
10904;SDS011;5505;51.450;9.254;2023-05-21T14:14:32;8.47;;;7.67;;
10904;SDS011;5505;51.450;9.254;2023-05-21T14:17:19;8.27;;;7.30;;
10904;SDS011;5505;51.450;9.254;2023-05-21T14:20:07;9.47;;;7.57;;
10904;SDS011;5505;51.450;9.254;2023-05-21T14:22:55;9.00;;;7.83;;
10904;SDS011;5505;51.450;9.254;2023-05-21T14:25:42;8.53;;;7.70;;
10904;SDS011;5505;51.450;9.254;2023-05-21T14:28:30;8.23;;;7.27;;
10904;SDS011;5505;51.450;9.254;2023-05-21T14:31:17;7.97;;;7.27;;
10904;SDS011;5505;51.450;9.254;2023-05-21T14:34:05;9.40;;;7.07;;
10904;SDS011;5505;51.450;9.254;2023-05-21T14:36:53;8.40;;;7.57;;
10904;SDS011;5505;51.450;9.254;2023-05-21T14:39:40;8.00;;;7.20;;
10904;SDS011;5505;51.450;9.254;2023-05-21T14:42:27;7.77;;;6.90;;
10904;SDS011;5505;51.450;9.254;2023-05-21T14:45:15;7.77;;;7.07;;
10904;SDS011;5505;51.450;9.254;2023-05-21T14:48:02;7.70;;;7.00;;
10904;SDS011;5505;51.450;9.254;2023-05-21T14:50:52;8.03;;;7.30;;
10904;SDS011;5505;51.450;9.254;2023-05-21T14:53:40;7.87;;;6.97;;
10904;SDS011;5505;51.450;9.254;2023-05-21T14:56:27;8.10;;;7.30;;
10904;SDS011;5505;51.450;9.254;2023-05-21T14:59:15;7.83;;;7.13;;
10904;SDS011;5505;51.450;9.254;2023-05-21T15:02:04;7.63;;;6.90;;
10904;SDS011;5505;51.450;9.254;2023-05-21T15:04:51;7.93;;;7.13;;
10904;SDS011;5505;51.450;9.254;2023-05-21T15:07:38;8.33;;;7.57;;
10904;SDS011;5505;51.450;9.254;2023-05-21T15:10:25;7.93;;;7.13;;
10904;SDS011;5505;51.450;9.254;2023-05-21T15:13:13;9.10;;;7.30;;
10904;SDS011;5505;51.450;9.254;2023-05-21T15:16:00;8.60;;;7.10;;
10904;SDS011;5505;51.450;9.254;2023-05-21T15:18:48;10.63;;;6.97;;
10904;SDS011;5505;51.450;9.254;2023-05-21T15:21:36;8.63;;;7.20;;
10904;SDS011;5505;51.450;9.254;2023-05-21T15:24:23;7.40;;;6.80;;
10904;SDS011;5505;51.450;9.254;2023-05-21T15:27:10;7.47;;;6.87;;
10904;SDS011;5505;51.450;9.254;2023-05-21T15:29:57;7.93;;;7.13;;
10904;SDS011;5505;51.450;9.254;2023-05-21T15:32:45;8.77;;;6.80;;
10904;SDS011;5505;51.450;9.254;2023-05-21T15:35:34;8.17;;;7.40;;
10904;SDS011;5505;51.450;9.254;2023-05-21T15:38:21;8.67;;;7.77;;
10904;SDS011;5505;51.450;9.254;2023-05-21T15:41:08;8.33;;;7.57;;
10904;SDS011;5505;51.450;9.254;2023-05-21T15:43:55;8.70;;;7.73;;
10904;SDS011;5505;51.450;9.254;2023-05-21T15:46:42;8.83;;;8.13;;
10904;SDS011;5505;51.450;9.254;2023-05-21T15:49:29;10.33;;;8.00;;
10904;SDS011;5505;51.450;9.254;2023-05-21T15:52:18;9.53;;;7.67;;
10904;SDS011;5505;51.450;9.254;2023-05-21T15:55:06;8.60;;;7.70;;
10904;SDS011;5505;51.450;9.254;2023-05-21T15:57:53;9.97;;;7.93;;
10904;SDS011;5505;51.450;9.254;2023-05-21T16:00:40;8.30;;;7.60;;
10904;SDS011;5505;51.450;9.254;2023-05-21T16:03:27;9.27;;;7.73;;
10904;SDS011;5505;51.450;9.254;2023-05-21T16:06:15;10.27;;;7.37;;
10904;SDS011;5505;51.450;9.254;2023-05-21T16:09:03;10.60;;;8.07;;
10904;SDS011;5505;51.450;9.254;2023-05-21T16:11:50;8.37;;;7.53;;
10904;SDS011;5505;51.450;9.254;2023-05-21T16:14:37;8.00;;;7.30;;
10904;SDS011;5505;51.450;9.254;2023-05-21T16:17:24;10.37;;;7.40;;
10904;SDS011;5505;51.450;9.254;2023-05-21T16:20:12;8.03;;;7.23;;
10904;SDS011;5505;51.450;9.254;2023-05-21T16:23:00;8.60;;;7.70;;
10904;SDS011;5505;51.450;9.254;2023-05-21T16:25:49;10.60;;;7.50;;
10904;SDS011;5505;51.450;9.254;2023-05-21T16:28:37;8.67;;;7.40;;
10904;SDS011;5505;51.450;9.254;2023-05-21T16:31:24;8.07;;;7.40;;
10904;SDS011;5505;51.450;9.254;2023-05-21T16:34:11;8.03;;;7.23;;
10904;SDS011;5505;51.450;9.254;2023-05-21T16:36:58;8.50;;;7.70;;
10904;SDS011;5505;51.450;9.254;2023-05-21T16:39:45;11.13;;;7.40;;
10904;SDS011;5505;51.450;9.254;2023-05-21T16:42:33;8.93;;;7.50;;
10904;SDS011;5505;51.450;9.254;2023-05-21T16:45:20;8.27;;;7.57;;
10904;SDS011;5505;51.450;9.254;2023-05-21T16:48:08;8.37;;;7.57;;
10904;SDS011;5505;51.450;9.254;2023-05-21T16:50:56;10.27;;;6.73;;
10904;SDS011;5505;51.450;9.254;2023-05-21T16:53:43;7.57;;;6.87;;
10904;SDS011;5505;51.450;9.254;2023-05-21T16:56:30;7.93;;;7.13;;
10904;SDS011;5505;51.450;9.254;2023-05-21T16:59:18;7.80;;;7.07;;
10904;SDS011;5505;51.450;9.254;2023-05-21T17:02:06;9.60;;;7.03;;
10904;SDS011;5505;51.450;9.254;2023-05-21T17:04:53;9.80;;;7.33;;
10904;SDS011;5505;51.450;9.254;2023-05-21T17:07:40;8.57;;;6.80;;